^^
Your Local Weather - Clay, NY Station Historical Data
Daily Summary for January 24, 2018 Units:  Both    English   Metric
« Previous Day
Next Day »
Daily Weekly Monthly Yearly Custom
  High: Low: Average:
Temperature: 32.4 °F /  0.2 °C 18.5 °F /  -7.5 °C 22 °F /  -5.6 °C
Dew Point: 29.2 °F /  -1.6 °C 12.7 °F /  -10.7 °C 16.8 °F /  -8.4 °C
Humidity: 88% 73% 80%
Wind Speed: 8.0mph /  12.9km/h - 3.6mph /  5.8km/h
Wind Gust: 15.0mph /  24.1km/h - -
Wind- - WNW
Pressure: 30.23 in /  1023.6 hPa 29.67 in /  1004.6 hPa -
Precipitation: 0.00 in /  0 mm    
Historical Graphs
 
 
Tabular Data for January 24, 2018
Time Temperature Dew Point Pressure Wind Wind Speed Wind Gust Humidity Rainfall Rate (Hourly) solar
00:02 32.4 °F /  0.2 °C 29.2 °F /  -1.6 °C 29.67in /  1004.6hPa NW 6.0mph /  9.7km/h 8.0mph /  12.9km/h 88% 0.00in /  0mm 0 W/m2
00:08 32.3 °F /  0.2 °C 28.9 °F /  -1.7 °C 29.68in /  1005hPa WNW 7.0mph /  11.3km/h 13.0mph /  20.9km/h 87% 0.00in /  0mm 0 W/m2
00:14 32.2 °F /  0.1 °C 28.5 °F /  -1.9 °C 29.68in /  1005hPa West 8.0mph /  12.9km/h 9.0mph /  14.5km/h 86% 0.00in /  0mm 0 W/m2
00:20 32.1 °F /  0.1 °C 28.1 °F /  -2.2 °C 29.69in /  1005.3hPa NW 7.0mph /  11.3km/h 14.0mph /  22.5km/h 85% 0.00in /  0mm 0 W/m2
00:26 32.0 °F /  0 °C 27.7 °F /  -2.4 °C 29.69in /  1005.3hPa WNW 8.0mph /  12.9km/h 14.0mph /  22.5km/h 84% 0.00in /  0mm 0 W/m2
00:32 31.9 °F /  -0.1 °C 27.6 °F /  -2.4 °C 29.69in /  1005.3hPa WNW 6.0mph /  9.7km/h 7.0mph /  11.3km/h 84% 0.00in /  0mm 0 W/m2
00:38 31.7 °F /  -0.2 °C 27.4 °F /  -2.6 °C 29.70in /  1005.6hPa WNW 6.0mph /  9.7km/h 12.0mph /  19.3km/h 84% 0.00in /  0mm 0 W/m2
00:44 31.4 °F /  -0.3 °C 27.1 °F /  -2.7 °C 29.70in /  1005.6hPa NNW 7.0mph /  11.3km/h 12.0mph /  19.3km/h 84% 0.00in /  0mm 0 W/m2
00:50 31.3 °F /  -0.4 °C 27.0 °F /  -2.8 °C 29.70in /  1005.6hPa WNW 7.0mph /  11.3km/h 7.0mph /  11.3km/h 84% 0.00in /  0mm 0 W/m2
00:56 31.1 °F /  -0.5 °C 26.8 °F /  -2.9 °C 29.70in /  1005.6hPa WNW 6.0mph /  9.7km/h 15.0mph /  24.1km/h 84% 0.00in /  0mm 0 W/m2
01:02 30.9 °F /  -0.6 °C 26.6 °F /  -3 °C 29.71in /  1006hPa West 7.0mph /  11.3km/h 11.0mph /  17.7km/h 84% 0.00in /  0mm 0 W/m2
01:08 30.8 °F /  -0.7 °C 26.5 °F /  -3.1 °C 29.72in /  1006.3hPa WNW 7.0mph /  11.3km/h 11.0mph /  17.7km/h 84% 0.00in /  0mm 0 W/m2
01:20 30.5 °F /  -0.8 °C 26.0 °F /  -3.3 °C 29.72in /  1006.3hPa West 7.0mph /  11.3km/h 7.0mph /  11.3km/h 83% 0.00in /  0mm 0 W/m2
01:26 30.4 °F /  -0.9 °C 25.6 °F /  -3.6 °C 29.73in /  1006.7hPa WNW 7.0mph /  11.3km/h 10.0mph /  16.1km/h 82% 0.00in /  0mm 0 W/m2
01:32 30.3 °F /  -0.9 °C 25.2 °F /  -3.8 °C 29.74in /  1007hPa West 8.0mph /  12.9km/h 8.0mph /  12.9km/h 81% 0.00in /  0mm 0 W/m2
01:38 30.0 °F /  -1.1 °C 24.9 °F /  -3.9 °C 29.74in /  1007hPa NW 7.0mph /  11.3km/h 10.0mph /  16.1km/h 81% 0.00in /  0mm 0 W/m2
01:44 29.8 °F /  -1.2 °C 25.0 °F /  -3.9 °C 29.74in /  1007hPa West 7.0mph /  11.3km/h 9.0mph /  14.5km/h 82% 0.00in /  0mm 0 W/m2
01:50 29.6 °F /  -1.3 °C 24.8 °F /  -4 °C 29.75in /  1007.3hPa SSW 7.0mph /  11.3km/h 7.0mph /  11.3km/h 82% 0.00in /  0mm 0 W/m2
01:56 29.5 °F /  -1.4 °C 25.0 °F /  -3.9 °C 29.75in /  1007.3hPa NW 5.0mph /  8km/h 10.0mph /  16.1km/h 83% 0.00in /  0mm 0 W/m2
02:02 29.3 °F /  -1.5 °C 24.8 °F /  -4 °C 29.76in /  1007.7hPa WNW 6.0mph /  9.7km/h 6.0mph /  9.7km/h 83% 0.00in /  0mm 0 W/m2
02:08 29.2 °F /  -1.6 °C 25.0 °F /  -3.9 °C 29.77in /  1008hPa West 5.0mph /  8km/h 10.0mph /  16.1km/h 84% 0.00in /  0mm 0 W/m2
02:14 29.0 °F /  -1.7 °C 25.1 °F /  -3.8 °C 29.77in /  1008hPa WNW 5.0mph /  8km/h 7.0mph /  11.3km/h 85% 0.00in /  0mm 0 W/m2
02:20 28.9 °F /  -1.7 °C 25.0 °F /  -3.9 °C 29.78in /  1008.4hPa WNW 5.0mph /  8km/h 5.0mph /  8km/h 85% 0.00in /  0mm 0 W/m2
02:32 28.7 °F /  -1.8 °C 24.8 °F /  -4 °C 29.79in /  1008.7hPa NW 7.0mph /  11.3km/h 9.0mph /  14.5km/h 85% 0.00in /  0mm 0 W/m2
02:38 28.6 °F /  -1.9 °C 24.7 °F /  -4.1 °C 29.80in /  1009hPa WNW 6.0mph /  9.7km/h 9.0mph /  14.5km/h 85% 0.00in /  0mm 0 W/m2
02:44 28.4 °F /  -2 °C 24.2 °F /  -4.3 °C 29.80in /  1009hPa West 5.0mph /  8km/h 6.0mph /  9.7km/h 84% 0.00in /  0mm 0 W/m2
02:50 28.2 °F /  -2.1 °C 24.0 °F /  -4.4 °C 29.80in /  1009hPa NNW 7.0mph /  11.3km/h 7.0mph /  11.3km/h 84% 0.00in /  0mm 0 W/m2
02:56 28.1 °F /  -2.2 °C 23.6 °F /  -4.7 °C 29.81in /  1009.4hPa West 8.0mph /  12.9km/h 9.0mph /  14.5km/h 83% 0.00in /  0mm 0 W/m2
03:02 28.0 °F /  -2.2 °C 23.5 °F /  -4.7 °C 29.80in /  1009hPa West 7.0mph /  11.3km/h 8.0mph /  12.9km/h 83% 0.00in /  0mm 0 W/m2
03:08 27.9 °F /  -2.3 °C 23.7 °F /  -4.6 °C 29.81in /  1009.4hPa West 6.0mph /  9.7km/h 8.0mph /  12.9km/h 84% 0.00in /  0mm 0 W/m2
03:14 27.8 °F /  -2.3 °C 23.9 °F /  -4.5 °C 29.82in /  1009.7hPa NW 5.0mph /  8km/h 10.0mph /  16.1km/h 85% 0.00in /  0mm 0 W/m2
03:20 27.4 °F /  -2.6 °C 23.5 °F /  -4.7 °C 29.82in /  1009.7hPa WNW 5.0mph /  8km/h 5.0mph /  8km/h 85% 0.00in /  0mm 0 W/m2
03:26 27.2 °F /  -2.7 °C 23.6 °F /  -4.7 °C 29.82in /  1009.7hPa NW 5.0mph /  8km/h 6.0mph /  9.7km/h 86% 0.00in /  0mm 0 W/m2
03:44 26.8 °F /  -2.9 °C 22.9 °F /  -5.1 °C 29.83in /  1010hPa WNW 6.0mph /  9.7km/h 12.0mph /  19.3km/h 85% 0.00in /  0mm 0 W/m2
03:50 26.7 °F /  -2.9 °C 22.5 °F /  -5.3 °C 29.83in /  1010hPa West 6.0mph /  9.7km/h 8.0mph /  12.9km/h 84% 0.00in /  0mm 0 W/m2
03:56 26.4 °F /  -3.1 °C 22.2 °F /  -5.4 °C 29.84in /  1010.4hPa WNW 7.0mph /  11.3km/h 8.0mph /  12.9km/h 84% 0.00in /  0mm 0 W/m2
04:02 26.2 °F /  -3.2 °C 22.0 °F /  -5.6 °C 29.84in /  1010.4hPa NW 6.0mph /  9.7km/h 7.0mph /  11.3km/h 84% 0.00in /  0mm 0 W/m2
04:08 26.1 °F /  -3.3 °C 21.6 °F /  -5.8 °C 29.84in /  1010.4hPa WNW 6.0mph /  9.7km/h 9.0mph /  14.5km/h 83% 0.00in /  0mm 0 W/m2
04:20 26.1 °F /  -3.3 °C 21.1 °F /  -6.1 °C 29.85in /  1010.7hPa WNW 7.0mph /  11.3km/h 7.0mph /  11.3km/h 81% 0.00in /  0mm 0 W/m2
04:32 26.0 °F /  -3.3 °C 20.7 °F /  -6.3 °C 29.85in /  1010.7hPa West 7.0mph /  11.3km/h 10.0mph /  16.1km/h 80% 0.00in /  0mm 0 W/m2
04:38 25.9 °F /  -3.4 °C 20.6 °F /  -6.3 °C 29.86in /  1011.1hPa NW 7.0mph /  11.3km/h 10.0mph /  16.1km/h 80% 0.00in /  0mm 0 W/m2
04:44 25.8 °F /  -3.4 °C 20.2 °F /  -6.6 °C 29.86in /  1011.1hPa WNW 7.0mph /  11.3km/h 9.0mph /  14.5km/h 79% 0.00in /  0mm 0 W/m2
04:50 25.7 °F /  -3.5 °C 20.1 °F /  -6.6 °C 29.87in /  1011.4hPa West 8.0mph /  12.9km/h 8.0mph /  12.9km/h 79% 0.00in /  0mm 0 W/m2
04:56 25.5 °F /  -3.6 °C 20.2 °F /  -6.6 °C 29.88in /  1011.7hPa NW 7.0mph /  11.3km/h 9.0mph /  14.5km/h 80% 0.00in /  0mm 0 W/m2
05:02 25.3 °F /  -3.7 °C 20.0 °F /  -6.7 °C 29.88in /  1011.7hPa West 6.0mph /  9.7km/h 8.0mph /  12.9km/h 80% 0.00in /  0mm 0 W/m2
05:08 25.1 °F /  -3.8 °C 19.5 °F /  -6.9 °C 29.89in /  1012.1hPa WNW 6.0mph /  9.7km/h 8.0mph /  12.9km/h 79% 0.00in /  0mm 0 W/m2
05:14 25.1 °F /  -3.8 °C 19.5 °F /  -6.9 °C 29.89in /  1012.1hPa WNW 5.0mph /  8km/h 6.0mph /  9.7km/h 79% 0.00in /  0mm 0 W/m2
05:20 24.9 °F /  -3.9 °C 19.3 °F /  -7.1 °C 29.90in /  1012.4hPa NNW 6.0mph /  9.7km/h 6.0mph /  9.7km/h 79% 0.00in /  0mm 0 W/m2
05:26 24.7 °F /  -4.1 °C 19.1 °F /  -7.2 °C 29.90in /  1012.4hPa WNW 7.0mph /  11.3km/h 11.0mph /  17.7km/h 79% 0.00in /  0mm 0 W/m2
05:32 24.5 °F /  -4.2 °C 18.9 °F /  -7.3 °C 29.90in /  1012.4hPa West 7.0mph /  11.3km/h 7.0mph /  11.3km/h 79% 0.00in /  0mm 0 W/m2
05:38 24.4 °F /  -4.2 °C 19.1 °F /  -7.2 °C 29.91in /  1012.8hPa WNW 6.0mph /  9.7km/h 7.0mph /  11.3km/h 80% 0.00in /  0mm 0 W/m2
05:44 24.4 °F /  -4.2 °C 19.1 °F /  -7.2 °C 29.91in /  1012.8hPa NW 5.0mph /  8km/h 6.0mph /  9.7km/h 80% 0.00in /  0mm 0 W/m2
05:50 24.1 °F /  -4.4 °C 18.8 °F /  -7.3 °C 29.91in /  1012.8hPa WNW 6.0mph /  9.7km/h 6.0mph /  9.7km/h 80% 0.00in /  0mm 0 W/m2
05:56 23.8 °F /  -4.6 °C 18.5 °F /  -7.5 °C 29.92in /  1013.1hPa West 6.0mph /  9.7km/h 8.0mph /  12.9km/h 80% 0.00in /  0mm 0 W/m2
06:02 23.7 °F /  -4.6 °C 18.4 °F /  -7.6 °C 29.93in /  1013.4hPa WNW 5.0mph /  8km/h 6.0mph /  9.7km/h 80% 0.00in /  0mm 0 W/m2
06:08 23.5 °F /  -4.7 °C 18.5 °F /  -7.5 °C 29.93in /  1013.4hPa WNW 6.0mph /  9.7km/h 7.0mph /  11.3km/h 81% 0.00in /  0mm 0 W/m2
06:14 23.3 °F /  -4.8 °C 18.3 °F /  -7.6 °C 29.93in /  1013.4hPa WNW 6.0mph /  9.7km/h 10.0mph /  16.1km/h 81% 0.00in /  0mm 0 W/m2
06:20 23.3 °F /  -4.8 °C 18.6 °F /  -7.4 °C 29.94in /  1013.8hPa NW 5.0mph /  8km/h 5.0mph /  8km/h 82% 0.00in /  0mm 0 W/m2
06:26 23.2 °F /  -4.9 °C 18.5 °F /  -7.5 °C 29.94in /  1013.8hPa NW 5.0mph /  8km/h 8.0mph /  12.9km/h 82% 0.00in /  0mm 0 W/m2
06:32 23.2 °F /  -4.9 °C 18.5 °F /  -7.5 °C 29.95in /  1014.1hPa NW 5.0mph /  8km/h 5.0mph /  8km/h 82% 0.00in /  0mm 0 W/m2
06:38 23.0 °F /  -5 °C 18.3 °F /  -7.6 °C 29.95in /  1014.1hPa NW 5.0mph /  8km/h 6.0mph /  9.7km/h 82% 0.00in /  0mm 0 W/m2
06:44 22.9 °F /  -5.1 °C 18.2 °F /  -7.7 °C 29.96in /  1014.4hPa NW 4.0mph /  6.4km/h 6.0mph /  9.7km/h 82% 0.00in /  0mm 0 W/m2
06:50 22.7 °F /  -5.2 °C 18.0 °F /  -7.8 °C 29.96in /  1014.4hPa NNW 5.0mph /  8km/h 5.0mph /  8km/h 82% 0.00in /  0mm 0 W/m2
06:56 22.6 °F /  -5.2 °C 18.2 °F /  -7.7 °C 29.96in /  1014.4hPa WNW 4.0mph /  6.4km/h 5.0mph /  8km/h 83% 0.00in /  0mm 0 W/m2
07:02 22.5 °F /  -5.3 °C 18.1 °F /  -7.7 °C 29.96in /  1014.4hPa WNW 4.0mph /  6.4km/h 6.0mph /  9.7km/h 83% 0.00in /  0mm 0 W/m2
07:08 22.4 °F /  -5.3 °C 18.0 °F /  -7.8 °C 29.97in /  1014.8hPa NW 5.0mph /  8km/h 10.0mph /  16.1km/h 83% 0.00in /  0mm 0 W/m2
07:14 22.3 °F /  -5.4 °C 17.9 °F /  -7.8 °C 29.97in /  1014.8hPa NW 5.0mph /  8km/h 7.0mph /  11.3km/h 83% 0.00in /  0mm 0 W/m2
07:20 22.3 °F /  -5.4 °C 17.9 °F /  -7.8 °C 29.98in /  1015.1hPa North 4.0mph /  6.4km/h 4.0mph /  6.4km/h 83% 0.00in /  0mm 0 W/m2
07:26 22.2 °F /  -5.4 °C 17.8 °F /  -7.9 °C 29.98in /  1015.1hPa WNW 4.0mph /  6.4km/h 6.0mph /  9.7km/h 83% 0.00in /  0mm 0 W/m2
07:32 22.2 °F /  -5.4 °C 17.8 °F /  -7.9 °C 29.98in /  1015.1hPa NNW 3.0mph /  4.8km/h 5.0mph /  8km/h 83% 0.00in /  0mm 0 W/m2
07:38 22.0 °F /  -5.6 °C 17.6 °F /  -8 °C 29.99in /  1015.5hPa WNW 5.0mph /  8km/h 6.0mph /  9.7km/h 83% 0.00in /  0mm 0 W/m2
07:44 21.8 °F /  -5.7 °C 17.4 °F /  -8.1 °C 29.99in /  1015.5hPa NW 5.0mph /  8km/h 5.0mph /  8km/h 83% 0.00in /  0mm 0 W/m2
07:50 21.6 °F /  -5.8 °C 17.0 °F /  -8.3 °C 29.99in /  1015.5hPa West 5.0mph /  8km/h 6.0mph /  9.7km/h 82% 0.00in /  0mm 0 W/m2
07:56 21.5 °F /  -5.8 °C 16.9 °F /  -8.4 °C 30.00in /  1015.8hPa North 5.0mph /  8km/h 8.0mph /  12.9km/h 82% 0.00in /  0mm 5 W/m2
08:02 21.5 °F /  -5.8 °C 16.9 °F /  -8.4 °C 30.00in /  1015.8hPa NNW 5.0mph /  8km/h 6.0mph /  9.7km/h 82% 0.00in /  0mm 5 W/m2
08:08 21.4 °F /  -5.9 °C 16.8 °F /  -8.4 °C 30.01in /  1016.1hPa NW 5.0mph /  8km/h 8.0mph /  12.9km/h 82% 0.00in /  0mm 7 W/m2
08:14 21.4 °F /  -5.9 °C 16.8 °F /  -8.4 °C 30.02in /  1016.5hPa NW 4.0mph /  6.4km/h 5.0mph /  8km/h 82% 0.00in /  0mm 7 W/m2
08:20 21.3 °F /  -5.9 °C 16.4 °F /  -8.7 °C 30.02in /  1016.5hPa WNW 4.0mph /  6.4km/h 4.0mph /  6.4km/h 81% 0.00in /  0mm 11 W/m2
08:26 21.2 °F /  -6 °C 16.6 °F /  -8.6 °C 30.02in /  1016.5hPa NW 4.0mph /  6.4km/h 6.0mph /  9.7km/h 82% 0.00in /  0mm 14 W/m2
08:32 21.1 °F /  -6.1 °C 16.5 °F /  -8.6 °C 30.02in /  1016.5hPa NW 4.0mph /  6.4km/h 5.0mph /  8km/h 82% 0.00in /  0mm 16 W/m2
08:38 20.8 °F /  -6.2 °C 16.5 °F /  -8.6 °C 30.03in /  1016.8hPa WNW 4.0mph /  6.4km/h 8.0mph /  12.9km/h 83% 0.00in /  0mm 23 W/m2
08:44 20.8 °F /  -6.2 °C 16.7 °F /  -8.5 °C 30.03in /  1016.8hPa NNW 4.0mph /  6.4km/h 5.0mph /  8km/h 84% 0.00in /  0mm 25 W/m2
08:50 20.5 °F /  -6.4 °C 16.4 °F /  -8.7 °C 30.04in /  1017.2hPa WNW 4.0mph /  6.4km/h 4.0mph /  6.4km/h 84% 0.00in /  0mm 25 W/m2
08:56 20.3 °F /  -6.5 °C 16.5 °F /  -8.6 °C 30.04in /  1017.2hPa NW 4.0mph /  6.4km/h 6.0mph /  9.7km/h 85% 0.00in /  0mm 28 W/m2
09:02 20.2 °F /  -6.6 °C 16.4 °F /  -8.7 °C 30.04in /  1017.2hPa WNW 4.0mph /  6.4km/h 5.0mph /  8km/h 85% 0.00in /  0mm 28 W/m2
09:08 20.2 °F /  -6.6 °C 16.4 °F /  -8.7 °C 30.05in /  1017.5hPa NW 5.0mph /  8km/h 5.0mph /  8km/h 85% 0.00in /  0mm 30 W/m2
09:14 20.1 °F /  -6.6 °C 16.6 °F /  -8.6 °C 30.05in /  1017.5hPa WNW 4.0mph /  6.4km/h 5.0mph /  8km/h 86% 0.00in /  0mm 39 W/m2
09:20 20.2 °F /  -6.6 °C 16.7 °F /  -8.5 °C 30.05in /  1017.5hPa WNW 3.0mph /  4.8km/h 3.0mph /  4.8km/h 86% 0.00in /  0mm 51 W/m2
09:26 20.3 °F /  -6.5 °C 16.8 °F /  -8.4 °C 30.05in /  1017.5hPa WNW 3.0mph /  4.8km/h 4.0mph /  6.4km/h 86% 0.00in /  0mm 51 W/m2
09:32 20.3 °F /  -6.5 °C 16.8 °F /  -8.4 °C 30.05in /  1017.5hPa WNW 3.0mph /  4.8km/h 6.0mph /  9.7km/h 86% 0.00in /  0mm 58 W/m2
09:38 20.2 °F /  -6.6 °C 16.7 °F /  -8.5 °C 30.06in /  1017.8hPa WNW 3.0mph /  4.8km/h 6.0mph /  9.7km/h 86% 0.00in /  0mm 56 W/m2
09:44 20.3 °F /  -6.5 °C 17.0 °F /  -8.3 °C 30.06in /  1017.8hPa WNW 3.0mph /  4.8km/h 3.0mph /  4.8km/h 87% 0.00in /  0mm 63 W/m2
09:50 20.3 °F /  -6.5 °C 16.8 °F /  -8.4 °C 30.06in /  1017.8hPa WNW 2.0mph /  3.2km/h 4.0mph /  6.4km/h 86% 0.00in /  0mm 58 W/m2
10:02 20.3 °F /  -6.5 °C 16.8 °F /  -8.4 °C 30.07in /  1018.2hPa North 3.0mph /  4.8km/h 5.0mph /  8km/h 86% 0.00in /  0mm 65 W/m2
10:08 20.3 °F /  -6.5 °C 16.8 °F /  -8.4 °C 30.07in /  1018.2hPa NW 3.0mph /  4.8km/h 7.0mph /  11.3km/h 86% 0.00in /  0mm 63 W/m2
10:20 19.6 °F /  -6.9 °C 15.8 °F /  -9 °C 30.07in /  1018.2hPa NW 5.0mph /  8km/h 6.0mph /  9.7km/h 85% 0.00in /  0mm 77 W/m2
10:26 19.5 °F /  -6.9 °C 15.7 °F /  -9.1 °C 30.07in /  1018.2hPa NW 4.0mph /  6.4km/h 8.0mph /  12.9km/h 85% 0.00in /  0mm 74 W/m2
10:32 19.5 °F /  -6.9 °C 15.7 °F /  -9.1 °C 30.07in /  1018.2hPa NNW 4.0mph /  6.4km/h 5.0mph /  8km/h 85% 0.00in /  0mm 84 W/m2
10:38 19.6 °F /  -6.9 °C 15.8 °F /  -9 °C 30.08in /  1018.5hPa WNW 4.0mph /  6.4km/h 5.0mph /  8km/h 85% 0.00in /  0mm 97 W/m2
10:44 19.4 °F /  -7 °C 15.4 °F /  -9.2 °C 30.08in /  1018.5hPa NW 4.0mph /  6.4km/h 6.0mph /  9.7km/h 84% 0.00in /  0mm 105 W/m2
10:50 19.4 °F /  -7 °C 15.1 °F /  -9.4 °C 30.08in /  1018.5hPa NW 5.0mph /  8km/h 5.0mph /  8km/h 83% 0.00in /  0mm 120 W/m2
10:56 19.5 °F /  -6.9 °C 14.9 °F /  -9.5 °C 30.08in /  1018.5hPa NW 5.0mph /  8km/h 8.0mph /  12.9km/h 82% 0.00in /  0mm 121 W/m2
11:02 19.5 °F /  -6.9 °C 14.6 °F /  -9.7 °C 30.08in /  1018.5hPa WNW 5.0mph /  8km/h 5.0mph /  8km/h 81% 0.00in /  0mm 120 W/m2
11:08 19.6 °F /  -6.9 °C 14.4 °F /  -9.8 °C 30.08in /  1018.5hPa WNW 4.0mph /  6.4km/h 6.0mph /  9.7km/h 80% 0.00in /  0mm 111 W/m2
11:14 19.7 °F /  -6.8 °C 14.5 °F /  -9.7 °C 30.09in /  1018.8hPa NW 4.0mph /  6.4km/h 5.0mph /  8km/h 80% 0.00in /  0mm 132 W/m2
11:20 19.8 °F /  -6.8 °C 14.6 °F /  -9.7 °C 30.09in /  1018.8hPa WNW 3.0mph /  4.8km/h 3.0mph /  4.8km/h 80% 0.00in /  0mm 141 W/m2
11:26 19.9 °F /  -6.7 °C 14.4 °F /  -9.8 °C 30.09in /  1018.8hPa WNW 3.0mph /  4.8km/h 6.0mph /  9.7km/h 79% 0.00in /  0mm 156 W/m2
11:32 19.7 °F /  -6.8 °C 14.0 °F /  -10 °C 30.08in /  1018.5hPa NNW 4.0mph /  6.4km/h 4.0mph /  6.4km/h 78% 0.00in /  0mm 167 W/m2
11:38 19.8 °F /  -6.8 °C 14.0 °F /  -10 °C 30.08in /  1018.5hPa NW 4.0mph /  6.4km/h 6.0mph /  9.7km/h 78% 0.00in /  0mm 169 W/m2
11:44 20.0 °F /  -6.7 °C 14.2 °F /  -9.9 °C 30.08in /  1018.5hPa NNW 3.0mph /  4.8km/h 9.0mph /  14.5km/h 78% 0.00in /  0mm 176 W/m2
11:50 19.9 °F /  -6.7 °C 13.9 °F /  -10.1 °C 30.08in /  1018.5hPa NNW 4.0mph /  6.4km/h 4.0mph /  6.4km/h 77% 0.00in /  0mm 190 W/m2
11:56 20.0 °F /  -6.7 °C 13.6 °F /  -10.2 °C 30.08in /  1018.5hPa NW 4.0mph /  6.4km/h 5.0mph /  8km/h 76% 0.00in /  0mm 188 W/m2
12:08 19.8 °F /  -6.8 °C 13.2 °F /  -10.4 °C 30.07in /  1018.2hPa NW 5.0mph /  8km/h 10.0mph /  16.1km/h 75% 0.00in /  0mm 169 W/m2
12:20 19.8 °F /  -6.8 °C 12.8 °F /  -10.7 °C 30.07in /  1018.2hPa WNW 5.0mph /  8km/h 5.0mph /  8km/h 74% 0.00in /  0mm 188 W/m2
12:26 19.7 °F /  -6.8 °C 12.8 °F /  -10.7 °C 30.08in /  1018.5hPa NNW 5.0mph /  8km/h 7.0mph /  11.3km/h 74% 0.00in /  0mm 200 W/m2
12:32 20.0 °F /  -6.7 °C 13.0 °F /  -10.6 °C 30.08in /  1018.5hPa WNW 5.0mph /  8km/h 6.0mph /  9.7km/h 74% 0.00in /  0mm 220 W/m2
12:38 20.0 °F /  -6.7 °C 12.7 °F /  -10.7 °C 30.08in /  1018.5hPa WNW 4.0mph /  6.4km/h 6.0mph /  9.7km/h 73% 0.00in /  0mm 221 W/m2
12:44 20.0 °F /  -6.7 °C 12.7 °F /  -10.7 °C 30.08in /  1018.5hPa WNW 5.0mph /  8km/h 5.0mph /  8km/h 73% 0.00in /  0mm 186 W/m2
12:50 20.1 °F /  -6.6 °C 12.8 °F /  -10.7 °C 30.08in /  1018.5hPa NW 4.0mph /  6.4km/h 4.0mph /  6.4km/h 73% 0.00in /  0mm 171 W/m2
12:56 20.1 °F /  -6.6 °C 13.1 °F /  -10.5 °C 30.08in /  1018.5hPa NW 4.0mph /  6.4km/h 7.0mph /  11.3km/h 74% 0.00in /  0mm 185 W/m2
13:08 20.1 °F /  -6.6 °C 12.8 °F /  -10.7 °C 30.08in /  1018.5hPa NW 4.0mph /  6.4km/h 7.0mph /  11.3km/h 73% 0.00in /  0mm 174 W/m2
13:14 20.2 °F /  -6.6 °C 13.2 °F /  -10.4 °C 30.08in /  1018.5hPa NW 4.0mph /  6.4km/h 6.0mph /  9.7km/h 74% 0.00in /  0mm 186 W/m2
13:20 20.3 °F /  -6.5 °C 13.3 °F /  -10.4 °C 30.08in /  1018.5hPa NNW 3.0mph /  4.8km/h 3.0mph /  4.8km/h 74% 0.00in /  0mm 167 W/m2
13:26 20.2 °F /  -6.6 °C 13.2 °F /  -10.4 °C 30.08in /  1018.5hPa North 4.0mph /  6.4km/h 7.0mph /  11.3km/h 74% 0.00in /  0mm 149 W/m2
13:32 20.3 °F /  -6.5 °C 13.3 °F /  -10.4 °C 30.08in /  1018.5hPa NNW 4.0mph /  6.4km/h 4.0mph /  6.4km/h 74% 0.00in /  0mm 128 W/m2
13:38 20.3 °F /  -6.5 °C 13.3 °F /  -10.4 °C 30.09in /  1018.8hPa NNW 3.0mph /  4.8km/h 7.0mph /  11.3km/h 74% 0.00in /  0mm 118 W/m2
13:44 20.0 °F /  -6.7 °C 13.3 °F /  -10.4 °C 30.09in /  1018.8hPa NW 4.0mph /  6.4km/h 4.0mph /  6.4km/h 75% 0.00in /  0mm 118 W/m2
13:50 19.9 °F /  -6.7 °C 13.3 °F /  -10.4 °C 30.09in /  1018.8hPa WNW 4.0mph /  6.4km/h 4.0mph /  6.4km/h 75% 0.00in /  0mm 116 W/m2
13:56 20.0 °F /  -6.7 °C 13.6 °F /  -10.2 °C 30.09in /  1018.8hPa WNW 3.0mph /  4.8km/h 4.0mph /  6.4km/h 76% 0.00in /  0mm 123 W/m2
14:02 20.1 °F /  -6.6 °C 13.7 °F /  -10.2 °C 30.08in /  1018.5hPa NW 3.0mph /  4.8km/h 3.0mph /  4.8km/h 76% 0.00in /  0mm 151 W/m2
14:08 20.0 °F /  -6.7 °C 13.3 °F /  -10.4 °C 30.08in /  1018.5hPa NNW 3.0mph /  4.8km/h 7.0mph /  11.3km/h 75% 0.00in /  0mm 134 W/m2
14:14 20.1 °F /  -6.6 °C 13.7 °F /  -10.2 °C 30.09in /  1018.8hPa NNW 3.0mph /  4.8km/h 3.0mph /  4.8km/h 76% 0.00in /  0mm 118 W/m2
14:20 20.0 °F /  -6.7 °C 13.6 °F /  -10.2 °C 30.09in /  1018.8hPa West 3.0mph /  4.8km/h 6.0mph /  9.7km/h 76% 0.00in /  0mm 104 W/m2
14:26 20.0 °F /  -6.7 °C 13.6 °F /  -10.2 °C 30.09in /  1018.8hPa NW 3.0mph /  4.8km/h 6.0mph /  9.7km/h 76% 0.00in /  0mm 105 W/m2
14:32 19.8 °F /  -6.8 °C 13.5 °F /  -10.3 °C 30.10in /  1019.2hPa WNW 3.0mph /  4.8km/h 3.0mph /  4.8km/h 76% 0.00in /  0mm 102 W/m2
14:46 19.7 °F /  -6.8 °C 13.4 °F /  -10.3 °C 30.11in /  1019.5hPa NW 4.0mph /  6.4km/h 4.0mph /  6.4km/h 76% 0.00in /  0mm 88 W/m2
14:52 19.7 °F /  -6.8 °C 13.4 °F /  -10.3 °C 30.11in /  1019.5hPa NW 3.0mph /  4.8km/h 4.0mph /  6.4km/h 76% 0.00in /  0mm 86 W/m2
14:58 19.7 °F /  -6.8 °C 13.4 °F /  -10.3 °C 30.11in /  1019.5hPa NNW 4.0mph /  6.4km/h 7.0mph /  11.3km/h 76% 0.00in /  0mm 84 W/m2
15:10 19.7 °F /  -6.8 °C 13.1 °F /  -10.5 °C 30.12in /  1019.9hPa NW 3.0mph /  4.8km/h 4.0mph /  6.4km/h 75% 0.00in /  0mm 77 W/m2
15:16 19.7 °F /  -6.8 °C 13.1 °F /  -10.5 °C 30.12in /  1019.9hPa WNW 4.0mph /  6.4km/h 4.0mph /  6.4km/h 75% 0.00in /  0mm 81 W/m2
15:22 19.7 °F /  -6.8 °C 13.1 °F /  -10.5 °C 30.12in /  1019.9hPa NW 3.0mph /  4.8km/h 4.0mph /  6.4km/h 75% 0.00in /  0mm 81 W/m2
15:28 19.7 °F /  -6.8 °C 13.1 °F /  -10.5 °C 30.12in /  1019.9hPa NW 4.0mph /  6.4km/h 4.0mph /  6.4km/h 75% 0.00in /  0mm 84 W/m2
15:34 19.8 °F /  -6.8 °C 13.2 °F /  -10.4 °C 30.12in /  1019.9hPa WNW 3.0mph /  4.8km/h 4.0mph /  6.4km/h 75% 0.00in /  0mm 72 W/m2
15:40 19.7 °F /  -6.8 °C 13.4 °F /  -10.3 °C 30.13in /  1020.2hPa NW 3.0mph /  4.8km/h 4.0mph /  6.4km/h 76% 0.00in /  0mm 70 W/m2
15:46 19.7 °F /  -6.8 °C 13.4 °F /  -10.3 °C 30.13in /  1020.2hPa WNW 3.0mph /  4.8km/h 6.0mph /  9.7km/h 76% 0.00in /  0mm 51 W/m2
15:52 19.7 °F /  -6.8 °C 13.4 °F /  -10.3 °C 30.13in /  1020.2hPa WNW 3.0mph /  4.8km/h 3.0mph /  4.8km/h 76% 0.00in /  0mm 47 W/m2
15:58 19.6 °F /  -6.9 °C 13.0 °F /  -10.6 °C 30.13in /  1020.2hPa WNW 3.0mph /  4.8km/h 6.0mph /  9.7km/h 75% 0.00in /  0mm 44 W/m2
16:04 19.6 °F /  -6.9 °C 13.0 °F /  -10.6 °C 30.13in /  1020.2hPa WNW 4.0mph /  6.4km/h 6.0mph /  9.7km/h 75% 0.00in /  0mm 39 W/m2
16:10 19.6 °F /  -6.9 °C 13.0 °F /  -10.6 °C 30.14in /  1020.5hPa West 3.0mph /  4.8km/h 3.0mph /  4.8km/h 75% 0.00in /  0mm 33 W/m2
16:16 19.7 °F /  -6.8 °C 13.1 °F /  -10.5 °C 30.14in /  1020.5hPa WNW 3.0mph /  4.8km/h 4.0mph /  6.4km/h 75% 0.00in /  0mm 26 W/m2
16:22 19.7 °F /  -6.8 °C 13.4 °F /  -10.3 °C 30.14in /  1020.5hPa NW 3.0mph /  4.8km/h 3.0mph /  4.8km/h 76% 0.00in /  0mm 32 W/m2
16:28 19.7 °F /  -6.8 °C 13.1 °F /  -10.5 °C 30.14in /  1020.5hPa WNW 3.0mph /  4.8km/h 3.0mph /  4.8km/h 75% 0.00in /  0mm 26 W/m2
16:34 19.7 °F /  -6.8 °C 13.4 °F /  -10.3 °C 30.14in /  1020.5hPa WNW 3.0mph /  4.8km/h 4.0mph /  6.4km/h 76% 0.00in /  0mm 21 W/m2
16:40 19.6 °F /  -6.9 °C 13.3 °F /  -10.4 °C 30.15in /  1020.9hPa NW 3.0mph /  4.8km/h 5.0mph /  8km/h 76% 0.00in /  0mm 14 W/m2
16:46 19.5 °F /  -6.9 °C 13.5 °F /  -10.3 °C 30.15in /  1020.9hPa NW 3.0mph /  4.8km/h 5.0mph /  8km/h 77% 0.00in /  0mm 12 W/m2
16:52 19.5 °F /  -6.9 °C 13.5 °F /  -10.3 °C 30.15in /  1020.9hPa NW 2.0mph /  3.2km/h 5.0mph /  8km/h 77% 0.00in /  0mm 7 W/m2
16:58 19.5 °F /  -6.9 °C 13.5 °F /  -10.3 °C 30.15in /  1020.9hPa WNW 3.0mph /  4.8km/h 5.0mph /  8km/h 77% 0.00in /  0mm 0 W/m2
17:04 19.5 °F /  -6.9 °C 13.5 °F /  -10.3 °C 30.16in /  1021.2hPa WNW 2.0mph /  3.2km/h 3.0mph /  4.8km/h 77% 0.00in /  0mm 0 W/m2
17:10 19.4 °F /  -7 °C 13.4 °F /  -10.3 °C 30.16in /  1021.2hPa NW 1.0mph /  1.6km/h 1.0mph /  1.6km/h 77% 0.00in /  0mm 0 W/m2
17:16 19.5 °F /  -6.9 °C 13.5 °F /  -10.3 °C 30.17in /  1021.6hPa West 2.0mph /  3.2km/h 3.0mph /  4.8km/h 77% 0.00in /  0mm 0 W/m2
17:22 19.5 °F /  -6.9 °C 13.5 °F /  -10.3 °C 30.17in /  1021.6hPa NNW 2.0mph /  3.2km/h 2.0mph /  3.2km/h 77% 0.00in /  0mm 0 W/m2
17:28 19.5 °F /  -6.9 °C 13.5 °F /  -10.3 °C 30.17in /  1021.6hPa NNW 2.0mph /  3.2km/h 2.0mph /  3.2km/h 77% 0.00in /  0mm 0 W/m2
17:34 19.5 °F /  -6.9 °C 13.5 °F /  -10.3 °C 30.17in /  1021.6hPa NW 2.0mph /  3.2km/h 3.0mph /  4.8km/h 77% 0.00in /  0mm 0 W/m2
17:40 19.5 °F /  -6.9 °C 13.5 °F /  -10.3 °C 30.17in /  1021.6hPa NW 2.0mph /  3.2km/h 2.0mph /  3.2km/h 77% 0.00in /  0mm 0 W/m2
17:46 19.6 °F /  -6.9 °C 13.9 °F /  -10.1 °C 30.18in /  1021.9hPa NW 2.0mph /  3.2km/h 2.0mph /  3.2km/h 78% 0.00in /  0mm 0 W/m2
17:52 19.6 °F /  -6.9 °C 13.9 °F /  -10.1 °C 30.18in /  1021.9hPa NW 1.0mph /  1.6km/h 2.0mph /  3.2km/h 78% 0.00in /  0mm 0 W/m2
17:58 19.7 °F /  -6.8 °C 14.0 °F /  -10 °C 30.18in /  1021.9hPa WNW 2.0mph /  3.2km/h 3.0mph /  4.8km/h 78% 0.00in /  0mm 0 W/m2
18:04 19.7 °F /  -6.8 °C 14.2 °F /  -9.9 °C 30.19in /  1022.2hPa WNW 2.0mph /  3.2km/h 2.0mph /  3.2km/h 79% 0.00in /  0mm 0 W/m2
18:10 19.7 °F /  -6.8 °C 14.2 °F /  -9.9 °C 30.19in /  1022.2hPa WNW 1.0mph /  1.6km/h 1.0mph /  1.6km/h 79% 0.00in /  0mm 0 W/m2
18:16 19.7 °F /  -6.8 °C 14.2 °F /  -9.9 °C 30.19in /  1022.2hPa WNW 1.0mph /  1.6km/h 1.0mph /  1.6km/h 79% 0.00in /  0mm 0 W/m2
18:22 19.8 °F /  -6.8 °C 14.3 °F /  -9.8 °C 30.19in /  1022.2hPa Calm   3.0mph /  4.8km/h 79% 0.00in /  0mm 0 W/m2
18:28 19.9 °F /  -6.7 °C 14.4 °F /  -9.8 °C 30.20in /  1022.6hPa Calm   3.0mph /  4.8km/h 79% 0.00in /  0mm 0 W/m2
18:34 19.9 °F /  -6.7 °C 14.4 °F /  -9.8 °C 30.20in /  1022.6hPa WNW 1.0mph /  1.6km/h 3.0mph /  4.8km/h 79% 0.00in /  0mm 0 W/m2
18:40 20.0 °F /  -6.7 °C 14.5 °F /  -9.7 °C 30.19in /  1022.2hPa WNW 1.0mph /  1.6km/h 1.0mph /  1.6km/h 79% 0.00in /  0mm 0 W/m2
18:46 20.0 °F /  -6.7 °C 14.5 °F /  -9.7 °C 30.19in /  1022.2hPa Calm   1.0mph /  1.6km/h 79% 0.00in /  0mm 0 W/m2
18:52 20.1 °F /  -6.6 °C 14.6 °F /  -9.7 °C 30.19in /  1022.2hPa Calm   1.0mph /  1.6km/h 79% 0.00in /  0mm 0 W/m2
18:58 20.0 °F /  -6.7 °C 14.5 °F /  -9.7 °C 30.20in /  1022.6hPa Calm   1.0mph /  1.6km/h 79% 0.00in /  0mm 0 W/m2
19:04 20.1 °F /  -6.6 °C 14.6 °F /  -9.7 °C 30.20in /  1022.6hPa Calm     79% 0.00in /  0mm 0 W/m2
19:10 20.1 °F /  -6.6 °C 14.6 °F /  -9.7 °C 30.20in /  1022.6hPa Calm     79% 0.00in /  0mm 0 W/m2
19:16 20.1 °F /  -6.6 °C 14.6 °F /  -9.7 °C 30.20in /  1022.6hPa WNW 1.0mph /  1.6km/h 1.0mph /  1.6km/h 79% 0.00in /  0mm 0 W/m2
19:22 20.1 °F /  -6.6 °C 14.6 °F /  -9.7 °C 30.20in /  1022.6hPa Calm   1.0mph /  1.6km/h 79% 0.00in /  0mm 0 W/m2
19:28 20.0 °F /  -6.7 °C 14.5 °F /  -9.7 °C 30.20in /  1022.6hPa Calm   1.0mph /  1.6km/h 79% 0.00in /  0mm 0 W/m2
19:34 19.9 °F /  -6.7 °C 14.4 °F /  -9.8 °C 30.20in /  1022.6hPa Calm     79% 0.00in /  0mm 0 W/m2
19:40 19.7 °F /  -6.8 °C 14.2 °F /  -9.9 °C 30.20in /  1022.6hPa Calm   1.0mph /  1.6km/h 79% 0.00in /  0mm 0 W/m2
19:46 19.6 °F /  -6.9 °C 14.1 °F /  -9.9 °C 30.21in /  1022.9hPa WNW 1.0mph /  1.6km/h 1.0mph /  1.6km/h 79% 0.00in /  0mm 0 W/m2
19:52 19.5 °F /  -6.9 °C 14.3 °F /  -9.8 °C 30.21in /  1022.9hPa Calm     80% 0.00in /  0mm 0 W/m2
19:58 19.3 °F /  -7.1 °C 14.1 °F /  -9.9 °C 30.21in /  1022.9hPa Calm     80% 0.00in /  0mm 0 W/m2
20:04 19.3 °F /  -7.1 °C 14.1 °F /  -9.9 °C 30.21in /  1022.9hPa Calm     80% 0.00in /  0mm 0 W/m2
20:10 19.2 °F /  -7.1 °C 14.0 °F /  -10 °C 30.21in /  1022.9hPa Calm     80% 0.00in /  0mm 0 W/m2
20:16 19.1 °F /  -7.2 °C 13.9 °F /  -10.1 °C 30.21in /  1022.9hPa Calm     80% 0.00in /  0mm 0 W/m2
20:22 18.9 °F /  -7.3 °C 13.7 °F /  -10.2 °C 30.21in /  1022.9hPa Calm     80% 0.00in /  0mm 0 W/m2
20:28 18.8 °F /  -7.3 °C 13.7 °F /  -10.2 °C 30.20in /  1022.6hPa Calm     80% 0.00in /  0mm 0 W/m2
20:34 18.7 °F /  -7.4 °C 13.8 °F /  -10.1 °C 30.21in /  1022.9hPa Calm     81% 0.00in /  0mm 0 W/m2
20:40 18.6 °F /  -7.4 °C 13.5 °F /  -10.3 °C 30.21in /  1022.9hPa Calm     80% 0.00in /  0mm 0 W/m2
20:46 18.6 °F /  -7.4 °C 13.7 °F /  -10.2 °C 30.21in /  1022.9hPa Calm   1.0mph /  1.6km/h 81% 0.00in /  0mm 0 W/m2
20:52 18.5 °F /  -7.5 °C 13.4 °F /  -10.3 °C 30.21in /  1022.9hPa Calm     80% 0.00in /  0mm 0 W/m2
20:58 18.6 °F /  -7.4 °C 13.7 °F /  -10.2 °C 30.21in /  1022.9hPa Calm   1.0mph /  1.6km/h 81% 0.00in /  0mm 0 W/m2
21:04 18.7 °F /  -7.4 °C 13.8 °F /  -10.1 °C 30.21in /  1022.9hPa WNW 1.0mph /  1.6km/h 1.0mph /  1.6km/h 81% 0.00in /  0mm 0 W/m2
21:10 18.7 °F /  -7.4 °C 13.8 °F /  -10.1 °C 30.21in /  1022.9hPa WNW 1.0mph /  1.6km/h 2.0mph /  3.2km/h 81% 0.00in /  0mm 0 W/m2
21:16 18.8 °F /  -7.3 °C 13.9 °F /  -10.1 °C 30.21in /  1022.9hPa WNW 1.0mph /  1.6km/h 2.0mph /  3.2km/h 81% 0.00in /  0mm 0 W/m2
21:22 18.8 °F /  -7.3 °C 13.9 °F /  -10.1 °C 30.21in /  1022.9hPa SW 1.0mph /  1.6km/h 4.0mph /  6.4km/h 81% 0.00in /  0mm 0 W/m2
21:28 18.8 °F /  -7.3 °C 14.2 °F /  -9.9 °C 30.21in /  1022.9hPa SW 2.0mph /  3.2km/h 4.0mph /  6.4km/h 82% 0.00in /  0mm 0 W/m2
21:34 18.8 °F /  -7.3 °C 14.2 °F /  -9.9 °C 30.21in /  1022.9hPa WSW 2.0mph /  3.2km/h 6.0mph /  9.7km/h 82% 0.00in /  0mm 0 W/m2
21:40 19.0 °F /  -7.2 °C 14.4 °F /  -9.8 °C 30.21in /  1022.9hPa SW 2.0mph /  3.2km/h 5.0mph /  8km/h 82% 0.00in /  0mm 0 W/m2
21:46 19.0 °F /  -7.2 °C 14.4 °F /  -9.8 °C 30.21in /  1022.9hPa WSW 3.0mph /  4.8km/h 5.0mph /  8km/h 82% 0.00in /  0mm 0 W/m2
21:52 19.1 °F /  -7.2 °C 14.5 °F /  -9.7 °C 30.21in /  1022.9hPa WSW 3.0mph /  4.8km/h 3.0mph /  4.8km/h 82% 0.00in /  0mm 0 W/m2
21:58 19.1 °F /  -7.2 °C 14.5 °F /  -9.7 °C 30.21in /  1022.9hPa SW 2.0mph /  3.2km/h 6.0mph /  9.7km/h 82% 0.00in /  0mm 0 W/m2
22:04 19.0 °F /  -7.2 °C 14.4 °F /  -9.8 °C 30.21in /  1022.9hPa WSW 3.0mph /  4.8km/h 4.0mph /  6.4km/h 82% 0.00in /  0mm 0 W/m2
22:10 19.0 °F /  -7.2 °C 14.4 °F /  -9.8 °C 30.22in /  1023.2hPa WSW 2.0mph /  3.2km/h 2.0mph /  3.2km/h 82% 0.00in /  0mm 0 W/m2
22:16 19.1 °F /  -7.2 °C 14.5 °F /  -9.7 °C 30.22in /  1023.2hPa WSW 2.0mph /  3.2km/h 3.0mph /  4.8km/h 82% 0.00in /  0mm 0 W/m2
22:22 19.1 °F /  -7.2 °C 14.5 °F /  -9.7 °C 30.21in /  1022.9hPa WSW 1.0mph /  1.6km/h 2.0mph /  3.2km/h 82% 0.00in /  0mm 0 W/m2
22:28 19.1 °F /  -7.2 °C 14.5 °F /  -9.7 °C 30.22in /  1023.2hPa WSW 2.0mph /  3.2km/h 4.0mph /  6.4km/h 82% 0.00in /  0mm 0 W/m2
22:34 19.2 °F /  -7.1 °C 14.6 °F /  -9.7 °C 30.22in /  1023.2hPa SW 2.0mph /  3.2km/h 2.0mph /  3.2km/h 82% 0.00in /  0mm 0 W/m2
22:40 19.2 °F /  -7.1 °C 14.6 °F /  -9.7 °C 30.22in /  1023.2hPa West 1.0mph /  1.6km/h 4.0mph /  6.4km/h 82% 0.00in /  0mm 0 W/m2
22:46 19.3 °F /  -7.1 °C 14.7 °F /  -9.6 °C 30.21in /  1022.9hPa WSW 1.0mph /  1.6km/h 4.0mph /  6.4km/h 82% 0.00in /  0mm 0 W/m2
22:52 19.3 °F /  -7.1 °C 14.7 °F /  -9.6 °C 30.21in /  1022.9hPa WSW 2.0mph /  3.2km/h 4.0mph /  6.4km/h 82% 0.00in /  0mm 0 W/m2
22:58 19.3 °F /  -7.1 °C 14.7 °F /  -9.6 °C 30.21in /  1022.9hPa SW 2.0mph /  3.2km/h 5.0mph /  8km/h 82% 0.00in /  0mm 0 W/m2
23:04 19.3 °F /  -7.1 °C 14.7 °F /  -9.6 °C 30.22in /  1023.2hPa WSW 2.0mph /  3.2km/h 4.0mph /  6.4km/h 82% 0.00in /  0mm 0 W/m2
23:10 19.2 °F /  -7.1 °C 14.6 °F /  -9.7 °C 30.22in /  1023.2hPa SW 2.0mph /  3.2km/h 2.0mph /  3.2km/h 82% 0.00in /  0mm 0 W/m2
23:16 19.1 °F /  -7.2 °C 14.5 °F /  -9.7 °C 30.22in /  1023.2hPa SW 1.0mph /  1.6km/h 2.0mph /  3.2km/h 82% 0.00in /  0mm 0 W/m2
23:22 19.1 °F /  -7.2 °C 14.5 °F /  -9.7 °C 30.22in /  1023.2hPa WNW 1.0mph /  1.6km/h 3.0mph /  4.8km/h 82% 0.00in /  0mm 0 W/m2
23:28 19.0 °F /  -7.2 °C 14.4 °F /  -9.8 °C 30.22in /  1023.2hPa WNW 1.0mph /  1.6km/h 3.0mph /  4.8km/h 82% 0.00in /  0mm 0 W/m2
23:34 18.9 °F /  -7.3 °C 14.3 °F /  -9.8 °C 30.22in /  1023.2hPa WNW 1.0mph /  1.6km/h 2.0mph /  3.2km/h 82% 0.00in /  0mm 0 W/m2
23:40 18.9 °F /  -7.3 °C 14.3 °F /  -9.8 °C 30.22in /  1023.2hPa WNW 1.0mph /  1.6km/h 1.0mph /  1.6km/h 82% 0.00in /  0mm 0 W/m2
23:46 18.8 °F /  -7.3 °C 14.2 °F /  -9.9 °C 30.22in /  1023.2hPa Calm   1.0mph /  1.6km/h 82% 0.00in /  0mm 0 W/m2
23:52 18.8 °F /  -7.3 °C 14.2 °F /  -9.9 °C 30.22in /  1023.2hPa Calm   1.0mph /  1.6km/h 82% 0.00in /  0mm 0 W/m2
23:58 18.8 °F /  -7.3 °C 14.2 °F /  -9.9 °C 30.23in /  1023.6hPa WNW 1.0mph /  1.6km/h 2.0mph /  3.2km/h 82% 0.00in /  0mm 0 W/m2
Country Meadow, Clay, NY, USA
Compliments of Weather Underground - 2 mb